Time;durP1;ratioP1;P1;durP2;ratioP2;P2;SDS_P1;SDS_P2;PMS_P1;PMS_P2;Temp;Humidity;BMP_temperature;BMP_pressure;BME280_temperature;BME280_humidity;BME280_pressure;Samples;Min_cycle;Max_cycle;Signal;HPM_P1;HPM_P2
2023/03/13 00:02:07;;;;;;;0.60;0.60;;;;;;;-0.36;82.67;98659.88;5087168;28;20063;-65
2023/03/13 00:04:32;;;;;;;0.50;0.50;;;;;;;-0.33;82.49;98667.56;5069115;28;20039;-65
2023/03/13 00:06:57;;;;;;;0.60;0.60;;;;;;;-0.53;82.33;98659.75;5087337;28;20025;-65
2023/03/13 00:09:23;;;;;;;0.60;0.60;;;;;;;-0.42;82.95;98619.03;5086956;28;20028;-65
2023/03/13 00:11:48;;;;;;;0.60;0.60;;;;;;;-0.31;82.29;98639.53;5087348;28;20043;-67
2023/03/13 00:14:14;;;;;;;0.70;0.70;;;;;;;-0.40;82.15;98630.94;5087299;28;20036;-66
2023/03/13 00:16:39;;;;;;;0.50;0.50;;;;;;;-0.51;82.91;98614.72;5087689;28;20036;-69
2023/03/13 00:19:07;;;;;;;0.50;0.50;;;;;;;-0.40;83.08;98623.31;5087030;28;20036;-68
2023/03/13 00:21:33;;;;;;;0.55;0.55;;;;;;;-0.29;82.70;98635.28;5087024;28;20081;-67
2023/03/13 00:23:59;;;;;;;0.60;0.60;;;;;;;-0.24;81.98;98613.22;5086907;28;20554;-68
2023/03/13 00:26:26;;;;;;;0.45;0.45;;;;;;;-0.33;82.41;98629.31;5086595;28;20028;-68
2023/03/13 00:28:52;;;;;;;0.50;0.50;;;;;;;-0.45;83.60;98619.03;5085501;28;20246;-68
2023/03/13 00:31:22;;;;;;;0.60;0.60;;;;;;;-0.14;82.58;98602.22;5086961;28;20032;-68
2023/03/13 00:33:50;;;;;;;0.60;0.60;;;;;;;-0.42;82.64;98585.91;5086548;28;20066;-68
2023/03/13 00:36:18;;;;;;;0.60;0.60;;;;;;;-0.50;83.47;98586.69;5068346;28;20159;-69
2023/03/13 00:38:44;;;;;;;0.50;0.50;;;;;;;-0.34;83.84;98586.81;5085292;28;20032;-68
2023/03/13 00:41:15;;;;;;;0.57;0.57;;;;;;;-0.28;83.54;98576.66;5086363;28;20092;-68
2023/03/13 00:43:42;;;;;;;0.70;0.70;;;;;;;-0.13;82.72;98572.47;5086683;28;20042;-68
2023/03/13 00:46:08;;;;;;;0.50;0.50;;;;;;;-0.33;84.05;98550.25;5086413;28;20547;-68
2023/03/13 00:48:34;;;;;;;0.50;0.50;;;;;;;-0.24;83.36;98553.72;5086320;28;20033;-69
2023/03/13 00:51:01;;;;;;;0.52;0.52;;;;;;;-0.12;83.03;98543.56;5086270;28;20032;-69
2023/03/13 00:53:26;;;;;;;0.60;0.60;;;;;;;-0.07;83.09;98535.94;5086457;28;20088;-69
2023/03/13 00:55:53;;;;;;;0.60;0.60;;;;;;;-0.26;83.42;98541.78;5086049;28;20055;-68
2023/03/13 00:58:19;;;;;;;0.60;0.60;;;;;;;-0.13;83.79;98541.88;5086296;28;20028;-68
2023/03/13 01:00:44;;;;;;;0.50;0.50;;;;;;;-0.21;84.18;98506.13;5067953;28;20444;-68
2023/03/13 01:03:09;;;;;;;0.60;0.60;;;;;;;-0.30;84.36;98527.31;5086123;28;20052;-68
2023/03/13 01:05:35;;;;;;;0.60;0.60;;;;;;;-0.49;85.71;98523.81;5086032;28;20052;-68
2023/03/13 01:08:00;;;;;;;0.60;0.60;;;;;;;-0.30;84.80;98496.72;5068086;28;20029;-68
2023/03/13 01:10:26;;;;;;;0.60;0.60;;;;;;;-0.08;83.96;98489.16;5085653;28;20035;-69
2023/03/13 01:12:51;;;;;;;0.50;0.50;;;;;;;-0.30;84.62;98494.16;5086016;28;20124;-68
2023/03/13 01:15:18;;;;;;;0.52;0.52;;;;;;;-0.45;85.62;98478.78;5085801;28;20504;-68
2023/03/13 01:17:44;;;;;;;0.60;0.60;;;;;;;-0.41;85.50;98486.47;5086152;28;20048;-69
2023/03/13 01:20:10;;;;;;;0.50;0.50;;;;;;;-0.30;85.10;98483.97;5085770;28;20050;-68
2023/03/13 01:22:36;;;;;;;0.40;0.40;;;;;;;-0.43;85.33;98480.50;5085950;28;20064;-66
2023/03/13 01:25:02;;;;;;;0.60;0.60;;;;;;;-0.36;86.29;98476.28;5085515;28;20075;-70
2023/03/13 01:27:28;;;;;;;0.50;0.50;;;;;;;-0.40;85.91;98477.13;5067856;28;20039;-69
2023/03/13 01:29:54;;;;;;;0.55;0.55;;;;;;;-0.17;85.27;98472.13;5085741;28;20317;-70
2023/03/13 01:32:19;;;;;;;0.50;0.50;;;;;;;-0.22;85.00;98453.38;5085650;28;20381;-68
2023/03/13 01:34:45;;;;;;;0.50;0.50;;;;;;;-0.20;85.29;98458.50;5085416;28;20033;-70
2023/03/13 01:37:10;;;;;;;0.50;0.50;;;;;;;-0.14;85.04;98446.63;5084695;28;20025;-70
2023/03/13 01:39:36;;;;;;;0.70;0.70;;;;;;;-0.29;85.58;98446.56;5085942;28;20037;-67
2023/03/13 01:42:03;;;;;;;0.60;0.60;;;;;;;-0.29;85.38;98429.56;5086131;28;20423;-67
2023/03/13 01:44:28;;;;;;;0.60;0.60;;;;;;;-0.31;85.82;98413.41;5085718;28;20043;-69
2023/03/13 01:46:54;;;;;;;0.50;0.50;;;;;;;-0.22;85.54;98414.31;5068513;28;20062;-70
2023/03/13 01:49:34;;;;;;;0.50;0.50;;;;;;;-0.19;86.02;98409.22;5085363;28;20032;-71
2023/03/13 01:52:11;;;;;;;0.60;0.60;;;;;;;-0.20;86.20;98418.56;5086078;28;20136;-71
2023/03/13 01:54:42;;;;;;;0.60;0.60;;;;;;;-0.05;85.59;98404.13;5085098;28;20032;-69
2023/03/13 01:57:24;;;;;;;0.60;0.60;;;;;;;-0.01;85.19;98393.09;5085446;28;20040;-70
2023/03/13 02:00:01;;;;;;;0.50;0.50;;;;;;;-0.22;85.83;98387.06;5085300;28;20078;-68
2023/03/13 02:02:28;;;;;;;0.50;0.50;;;;;;;-0.14;86.22;98387.09;5085173;28;20043;-69
2023/03/13 02:05:00;;;;;;;0.60;0.60;;;;;;;-0.13;86.48;98384.53;5084878;28;20027;-69
2023/03/13 02:07:33;;;;;;;;;;;;;;;-0.06;86.28;98372.66;5085356;28;20054;-69
2023/03/13 02:10:00;;;;;;;0.60;0.60;;;;;;;-0.20;86.74;98367.53;5084663;28;19908;-68
2023/03/13 02:12:30;;;;;;;0.60;0.60;;;;;;;-0.11;87.31;98355.66;5085004;28;20028;-69
2023/03/13 02:14:58;;;;;;;0.52;0.52;;;;;;;-0.04;86.33;98360.78;5084836;28;20048;-69
2023/03/13 02:17:24;;;;;;;0.60;0.60;;;;;;;-0.16;86.73;98353.09;5084772;28;20055;-69
2023/03/13 02:19:50;;;;;;;0.50;0.50;;;;;;;0.09;86.27;98338.69;5084747;28;20036;-67
2023/03/13 02:22:25;;;;;;;0.50;0.50;;;;;;;0.04;86.72;98326.75;5084603;28;20043;-69
2023/03/13 02:25:09;;;;;;;0.52;0.52;;;;;;;0.07;87.02;98340.38;5084266;28;20024;-69
2023/03/13 02:27:34;;;;;;;0.60;0.60;;;;;;;0.02;86.26;98333.56;5084863;28;20029;-69
2023/03/13 02:30:00;;;;;;;0.50;0.50;;;;;;;0.07;86.73;98314.84;5084519;28;20097;-68
2023/03/13 02:32:28;;;;;;;0.60;0.60;;;;;;;0.16;86.50;98321.66;5066520;28;20028;-72
2023/03/13 02:35:00;;;;;;;0.52;0.52;;;;;;;0.07;86.83;98316.53;5084476;28;20037;-70
2023/03/13 02:37:29;;;;;;;0.60;0.60;;;;;;;0.18;86.64;98281.66;5084529;28;20055;-69
2023/03/13 02:39:59;;;;;;;0.60;0.60;;;;;;;0.32;86.12;98314.00;5084209;28;20040;-70
2023/03/13 02:42:27;;;;;;;0.60;0.60;;;;;;;0.16;87.05;98305.50;5084374;28;20028;-68
2023/03/13 02:44:52;;;;;;;0.60;0.60;;;;;;;0.30;86.07;98301.25;5084335;28;20036;-69
2023/03/13 02:47:23;;;;;;;0.50;0.50;;;;;;;0.40;86.34;98291.03;5084442;28;20025;-69
2023/03/13 02:49:49;;;;;;;0.52;0.52;;;;;;;0.29;86.95;98304.63;5084322;28;20120;-69
2023/03/13 02:52:31;;;;;;;0.50;0.50;;;;;;;-0.08;88.31;98300.38;5083411;28;20059;-68
2023/03/13 02:55:00;;;;;;;0.70;0.70;;;;;;;0.12;88.07;98276.56;5084264;28;20119;-68
2023/03/13 02:57:26;;;;;;;0.50;0.50;;;;;;;0.06;87.57;98276.56;5084390;28;20032;-68
2023/03/13 02:59:51;;;;;;;0.50;0.50;;;;;;;0.34;87.10;98268.88;5084312;28;20040;-69
2023/03/13 03:02:17;;;;;;;0.60;0.60;;;;;;;0.18;87.21;98257.84;5084174;28;20043;-68
2023/03/13 03:04:42;;;;;;;0.50;0.50;;;;;;;0.36;87.37;98256.97;5083882;28;20092;-69
2023/03/13 03:07:08;;;;;;;0.60;0.60;;;;;;;0.19;87.74;98245.09;5084170;28;20178;-67
2023/03/13 03:09:33;;;;;;;0.60;0.60;;;;;;;0.33;87.59;98234.00;5084112;28;20043;-69
2023/03/13 03:11:59;;;;;;;0.50;0.50;;;;;;;0.49;86.84;98225.47;5084030;28;20037;-69
2023/03/13 03:14:24;;;;;;;0.50;0.50;;;;;;;0.26;87.80;98224.69;5084381;28;20439;-67
2023/03/13 03:16:49;;;;;;;0.60;0.60;;;;;;;0.27;87.77;98229.78;5084329;28;20590;-66
2023/03/13 03:19:15;;;;;;;0.50;0.50;;;;;;;0.36;87.71;98219.56;5084635;28;20032;-68
2023/03/13 03:21:40;;;;;;;0.50;0.50;;;;;;;0.17;88.48;98213.63;5066331;28;20377;-71
2023/03/13 03:24:06;;;;;;;0.50;0.50;;;;;;;0.34;88.02;98233.16;5084674;28;20071;-70
2023/03/13 03:26:32;;;;;;;0.50;0.50;;;;;;;0.31;88.59;98221.25;5083932;28;20041;-68
2023/03/13 03:28:57;;;;;;;0.50;0.50;;;;;;;0.27;88.70;98222.13;5084072;28;20037;-67
2023/03/13 03:31:23;;;;;;;0.50;0.50;;;;;;;0.22;89.05;98204.25;5083684;28;20090;-67
2023/03/13 03:33:49;;;;;;;0.50;0.50;;;;;;;0.46;87.92;98199.09;5083800;28;20028;-69
2023/03/13 03:36:18;;;;;;;0.55;0.55;;;;;;;0.35;88.42;98194.84;5083946;28;20024;-68
2023/03/13 03:38:44;;;;;;;0.60;0.60;;;;;;;0.38;88.51;98177.84;5065645;28;20032;-67
2023/03/13 03:41:12;;;;;;;0.43;0.43;;;;;;;0.26;89.00;98176.19;5083773;28;20245;-66
2023/03/13 03:43:38;;;;;;;0.50;0.50;;;;;;;0.33;89.11;98168.50;5083866;28;20029;-67
2023/03/13 03:46:04;;;;;;;0.50;0.50;;;;;;;0.44;88.96;98168.47;5083692;28;20063;-67
2023/03/13 03:48:29;;;;;;;0.50;0.50;;;;;;;0.25;89.71;98154.91;5083595;28;20021;-68
2023/03/13 03:50:55;;;;;;;0.60;0.60;;;;;;;0.26;90.12;98165.97;5083509;28;20074;-69
2023/03/13 03:53:21;;;;;;;0.50;0.50;;;;;;;0.32;90.29;98166.78;5083705;28;20071;-69
2023/03/13 03:55:46;;;;;;;0.50;0.50;;;;;;;0.38;89.78;98160.84;5083537;28;20394;-67
2023/03/13 03:58:11;;;;;;;0.50;0.50;;;;;;;0.37;89.91;98143.78;5083495;28;20092;-68
2023/03/13 04:00:37;;;;;;;0.50;0.50;;;;;;;0.31;90.21;98154.91;5083833;28;20061;-68
2023/03/13 04:03:02;;;;;;;0.60;0.60;;;;;;;0.19;90.58;98122.59;5085990;28;20043;-69
2023/03/13 04:05:28;;;;;;;0.50;0.50;;;;;;;0.52;90.17;98150.56;5087263;28;20032;-69
2023/03/13 04:07:54;;;;;;;0.55;0.55;;;;;;;0.40;90.17;98142.97;5087350;28;20024;-70
2023/03/13 04:10:19;;;;;;;0.50;0.50;;;;;;;0.33;90.55;98142.97;5086968;28;20055;-68
2023/03/13 04:12:45;;;;;;;0.50;0.50;;;;;;;0.31;91.25;98128.50;5087023;28;20064;-68
2023/03/13 04:15:10;;;;;;;0.50;0.50;;;;;;;0.45;91.29;98126.75;5087002;28;20039;-69
2023/03/13 04:17:36;;;;;;;0.60;0.60;;;;;;;0.34;91.24;98128.50;5087128;28;20035;-69
2023/03/13 04:20:03;;;;;;;0.60;0.60;;;;;;;0.22;92.05;98125.13;5086953;28;20037;-69
2023/03/13 04:22:29;;;;;;;0.50;0.50;;;;;;;0.10;92.61;98140.47;5069001;28;20036;-70
2023/03/13 04:24:54;;;;;;;0.50;0.50;;;;;;;0.09;93.00;98123.47;5068812;28;20031;-70
2023/03/13 04:27:19;;;;;;;0.52;0.52;;;;;;;0.36;93.37;98117.44;5087026;28;20028;-71
2023/03/13 04:29:45;;;;;;;0.50;0.50;;;;;;;0.42;92.45;98113.16;5086723;28;20043;-71
2023/03/13 04:32:10;;;;;;;0.60;0.60;;;;;;;0.20;93.08;98092.81;5086956;28;20033;-71
2023/03/13 04:34:36;;;;;;;0.50;0.50;;;;;;;0.18;93.38;98097.94;5086884;28;20056;-71
2023/03/13 04:37:01;;;;;;;0.60;0.60;;;;;;;0.19;93.64;98084.31;5086571;28;20028;-70
2023/03/13 04:39:27;;;;;;;0.50;0.50;;;;;;;0.19;93.83;98076.66;5086693;28;20039;-71
2023/03/13 04:41:54;;;;;;;0.43;0.43;;;;;;;0.20;93.97;98082.63;5086356;28;20040;-71
2023/03/13 04:44:20;;;;;;;0.50;0.50;;;;;;;0.23;94.05;98070.69;5086803;28;20357;-70
2023/03/13 04:46:46;;;;;;;0.45;0.45;;;;;;;0.26;94.13;98061.34;5086387;28;20086;-71
2023/03/13 04:49:13;;;;;;;0.50;0.50;;;;;;;0.28;94.30;98062.16;5086479;28;20033;-70
2023/03/13 16:52:05;;;;;;;4.22;2.95;;;;;;;6.10;100.00;96508.41;5066797;28;20511;-71
2023/03/13 16:54:30;;;;;;;0.55;0.55;;;;;;;6.04;100.00;96504.34;5066229;28;20170;-69
2023/03/13 16:56:57;;;;;;;0.40;0.40;;;;;;;6.05;100.00;96500.94;5066143;28;20037;-71
2023/03/13 16:59:23;;;;;;;0.55;0.55;;;;;;;6.05;100.00;96490.63;5066552;28;20114;-71
2023/03/13 17:01:49;;;;;;;0.40;0.40;;;;;;;6.02;100.00;96503.63;5048292;28;20033;-67
2023/03/13 17:04:15;;;;;;;0.40;0.40;;;;;;;5.98;100.00;96484.94;5066274;28;20059;-65
2023/03/13 17:06:43;;;;;;;0.40;0.40;;;;;;;5.96;100.00;96489.31;5067167;28;20029;-65
2023/03/13 17:09:15;;;;;;;0.40;0.40;;;;;;;5.94;100.00;96504.03;5066968;28;20029;-65
2023/03/13 17:11:40;;;;;;;1.67;1.58;;;;;;;5.90;100.00;96500.78;5066526;28;20037;-66
2023/03/13 17:14:09;;;;;;;0.45;0.45;;;;;;;5.95;100.00;96496.25;5067383;28;20051;-66
2023/03/13 17:16:39;;;;;;;1.17;1.13;;;;;;;5.94;100.00;96498.91;5049264;28;20044;-64
2023/03/13 17:19:05;;;;;;;0.50;0.50;;;;;;;5.90;100.00;96503.38;5067082;28;20025;-66
2023/03/13 17:21:31;;;;;;;1.45;1.45;;;;;;;5.88;100.00;96489.72;5066968;28;20029;-65
2023/03/13 17:23:58;;;;;;;0.70;0.70;;;;;;;5.90;100.00;96490.50;5067202;28;20033;-65
2023/03/13 17:26:31;;;;;;;0.40;0.40;;;;;;;5.92;100.00;96492.97;5066715;28;20029;-67
2023/03/13 17:28:59;;;;;;;0.40;0.40;;;;;;;6.00;100.00;96474.56;5066850;28;20025;-67
2023/03/13 17:31:26;;;;;;;0.40;0.40;;;;;;;6.01;100.00;96486.50;5066756;28;20048;-67
2023/03/13 17:33:52;;;;;;;0.77;0.77;;;;;;;5.98;100.00;96484.09;5066577;28;20033;-68
2023/03/13 17:36:21;;;;;;;0.60;0.60;;;;;;;6.00;100.00;96490.00;5066493;28;20040;-68
2023/03/13 17:38:50;;;;;;;0.50;0.50;;;;;;;5.98;100.00;96461.75;5066764;28;20057;-68
2023/03/13 17:41:18;;;;;;;0.40;0.40;;;;;;;6.01;100.00;96474.47;5066224;28;20040;-68
2023/03/13 17:43:44;;;;;;;0.50;0.50;;;;;;;5.98;100.00;96477.22;5066582;28;20481;-67
2023/03/13 17:46:18;;;;;;;2.45;2.35;;;;;;;6.02;100.00;96480.47;5066553;28;20059;-67
2023/03/13 17:48:44;;;;;;;0.40;0.40;;;;;;;6.03;100.00;96466.66;5066486;28;20381;-68
2023/03/13 17:51:15;;;;;;;0.40;0.40;;;;;;;6.03;100.00;96456.38;5066086;28;20051;-67
2023/03/13 17:53:41;;;;;;;0.50;0.50;;;;;;;6.04;100.00;96460.59;5066161;28;20041;-67
2023/03/13 17:56:19;;;;;;;0.40;0.40;;;;;;;6.00;100.00;96459.09;5065897;28;20495;-66
2023/03/13 17:58:45;;;;;;;0.35;0.35;;;;;;;6.00;100.00;96412.75;5066186;28;20036;-67
2023/03/13 18:01:13;;;;;;;0.40;0.40;;;;;;;5.96;100.00;96463.56;5066006;28;20029;-65
2023/03/13 18:03:39;;;;;;;0.60;0.60;;;;;;;5.98;100.00;96458.34;5066061;28;20037;-67
2023/03/13 18:06:05;;;;;;;0.40;0.40;;;;;;;5.98;100.00;96459.19;5066085;28;20051;-67
2023/03/13 18:08:34;;;;;;;0.40;0.40;;;;;;;5.98;100.00;96459.19;5065754;28;20089;-66
2023/03/13 18:10:59;;;;;;;0.40;0.40;;;;;;;5.96;100.00;96453.28;5064797;28;20055;-66
2023/03/13 18:13:24;;;;;;;0.40;0.40;;;;;;;5.95;100.00;96446.47;5066118;28;20409;-66
2023/03/13 18:15:50;;;;;;;0.40;0.40;;;;;;;5.94;100.00;96444.81;5065849;28;20094;-67
2023/03/13 18:18:16;;;;;;;0.40;0.40;;;;;;;5.88;100.00;96445.97;5065651;28;20028;-67
2023/03/13 18:20:41;;;;;;;0.40;0.40;;;;;;;5.92;100.00;96444.06;5065700;28;20033;-67
2023/03/13 18:23:08;;;;;;;0.70;0.70;;;;;;;5.90;100.00;96440.75;5065565;28;20039;-67
2023/03/13 18:25:34;;;;;;;0.40;0.40;;;;;;;5.88;100.00;96448.53;5065453;28;20063;-66
2023/03/13 18:27:59;;;;;;;0.40;0.40;;;;;;;5.88;100.00;96451.13;5065866;28;20029;-67
2023/03/13 18:30:25;;;;;;;0.40;0.40;;;;;;;5.88;100.00;96452.88;5048000;28;20124;-68
2023/03/13 18:32:51;;;;;;;0.50;0.50;;;;;;;5.88;100.00;96442.59;5066082;28;20025;-68
2023/03/13 18:35:17;;;;;;;0.40;0.40;;;;;;;5.86;100.00;96450.38;5066076;28;20033;-67
2023/03/13 18:37:44;;;;;;;0.40;0.40;;;;;;;5.85;100.00;96438.41;5065112;28;20440;-68
2023/03/13 18:40:21;;;;;;;0.40;0.40;;;;;;;5.80;100.00;96425.78;5065477;28;20061;-67
2023/03/13 18:42:47;;;;;;;0.40;0.40;;;;;;;5.85;100.00;96441.00;5065241;28;20088;-67
2023/03/13 18:45:14;;;;;;;0.98;0.98;;;;;;;5.85;100.00;96432.47;5065278;28;20033;-67
2023/03/13 18:47:40;;;;;;;0.40;0.40;;;;;;;5.84;100.00;96439.34;5065365;28;20025;-67
2023/03/13 18:50:34;;;;;;;0.40;0.40;;;;;;;5.81;100.00;96430.00;5068938;28;20163;-68
2023/03/13 18:53:00;;;;;;;0.40;0.40;;;;;;;5.79;100.00;96451.59;5068114;28;20044;-68
2023/03/13 18:55:28;;;;;;;0.40;0.40;;;;;;;5.74;100.00;96435.56;5085895;28;20116;-67
2023/03/13 18:57:54;;;;;;;0.40;0.40;;;;;;;5.77;100.00;96425.13;5085104;28;20020;-68
2023/03/13 19:00:25;;;;;;;0.40;0.40;;;;;;;5.77;100.00;96441.41;5085213;28;20032;-68
2023/03/13 19:02:51;;;;;;;0.50;0.50;;;;;;;5.76;100.00;96426.03;5085416;28;20036;-68
2023/03/13 19:05:18;;;;;;;0.40;0.40;;;;;;;5.76;100.00;96432.03;5085295;28;20116;-68
2023/03/13 19:07:43;;;;;;;0.40;0.40;;;;;;;5.79;100.00;96433.59;5084955;28;20039;-67
2023/03/13 19:10:19;;;;;;;0.40;0.40;;;;;;;5.78;100.00;96442.25;5085482;28;20024;-68
2023/03/13 19:12:45;;;;;;;0.45;0.45;;;;;;;5.78;100.00;96443.03;5084971;28;20028;-67
2023/03/13 19:15:13;;;;;;;0.50;0.50;;;;;;;5.77;100.00;96413.09;5085226;28;20032;-68
2023/03/13 19:17:39;;;;;;;0.40;0.40;;;;;;;5.76;100.00;96442.31;5085189;28;20032;-68
2023/03/13 19:20:05;;;;;;;0.40;0.40;;;;;;;5.72;100.00;96447.72;5085203;28;20075;-68
2023/03/13 19:22:31;;;;;;;0.47;0.47;;;;;;;5.66;100.00;96417.97;5084997;28;20028;-68
2023/03/13 19:24:56;;;;;;;0.45;0.45;;;;;;;5.67;100.00;96430.75;5067046;28;20135;-69
2023/03/13 19:27:21;;;;;;;4.57;2.15;;;;;;;5.69;100.00;96425.53;5084583;28;20031;-67
2023/03/13 19:29:47;;;;;;;0.40;0.40;;;;;;;5.73;100.00;96431.34;5084913;28;20111;-67
2023/03/13 19:32:17;;;;;;;3.17;2.90;;;;;;;5.74;100.00;96420.13;5084803;28;20488;-68
2023/03/13 19:34:43;;;;;;;0.40;0.40;;;;;;;5.77;100.00;96419.97;5088608;28;20037;-68
2023/03/13 19:37:14;;;;;;;0.40;0.40;;;;;;;5.80;100.00;96405.19;5089266;28;20059;-67
2023/03/13 19:39:40;;;;;;;0.50;0.50;;;;;;;5.82;100.00;96413.69;5088891;28;20096;-67
2023/03/13 19:42:07;;;;;;;0.40;0.40;;;;;;;5.86;100.00;96408.38;5088661;28;20033;-66
2023/03/13 19:44:32;;;;;;;0.40;0.40;;;;;;;5.84;100.00;96400.72;5088644;28;20033;-66
2023/03/13 19:46:59;;;;;;;0.40;0.40;;;;;;;5.84;100.00;96411.03;5088876;28;20096;-67
2023/03/13 19:49:24;;;;;;;0.40;0.40;;;;;;;5.84;100.00;96413.59;5088890;28;20040;-66
2023/03/13 19:51:50;;;;;;;0.40;0.40;;;;;;;5.88;100.00;96402.22;5088380;28;20040;-65
2023/03/13 19:54:17;;;;;;;0.40;0.40;;;;;;;5.88;100.00;96404.78;5088551;28;20408;-66
2023/03/13 19:56:44;;;;;;;2.15;2.05;;;;;;;5.89;100.00;96403.06;5088193;28;20033;-66
2023/03/13 19:59:22;;;;;;;0.40;0.40;;;;;;;5.93;100.00;96433.69;5088446;28;20031;-67
2023/03/13 20:01:47;;;;;;;0.40;0.40;;;;;;;5.93;100.00;96414.81;5088560;28;20050;-67
2023/03/13 20:04:13;;;;;;;0.40;0.40;;;;;;;5.91;100.00;96412.34;5088493;28;20064;-67
2023/03/13 20:06:40;;;;;;;0.40;0.40;;;;;;;5.90;100.00;96415.84;5088422;28;20465;-67
2023/03/13 20:09:08;;;;;;;0.40;0.40;;;;;;;5.89;100.00;96416.75;5088423;28;20071;-67
2023/03/13 20:11:34;;;;;;;0.40;0.40;;;;;;;5.87;100.00;96418.56;5088124;28;20434;-66
2023/03/13 20:14:00;;;;;;;0.40;0.40;;;;;;;5.88;100.00;96422.00;5088440;28;20099;-66
2023/03/13 20:16:28;;;;;;;0.45;0.45;;;;;;;5.87;100.00;96412.59;5088164;28;20036;-67
2023/03/13 20:18:55;;;;;;;0.40;0.40;;;;;;;5.86;100.00;96427.22;5087989;28;20025;-67
2023/03/13 20:21:21;;;;;;;0.40;0.40;;;;;;;5.83;100.00;96424.81;5088143;28;20044;-66
2023/03/13 20:23:48;;;;;;;0.40;0.40;;;;;;;5.79;100.00;96436.16;5088216;28;20059;-66
2023/03/13 20:26:16;;;;;;;0.40;0.40;;;;;;;5.78;100.00;96426.78;5087818;28;20033;-66
2023/03/13 20:28:44;;;;;;;0.40;0.40;;;;;;;5.74;100.00;96425.28;5088030;28;20028;-67
2023/03/13 20:31:10;;;;;;;0.40;0.40;;;;;;;5.75;100.00;96448.34;5088052;28;20116;-67
2023/03/13 20:33:36;;;;;;;0.40;0.40;;;;;;;5.73;100.00;96445.06;5087915;28;20039;-68
2023/03/13 20:36:04;;;;;;;0.40;0.40;;;;;;;5.72;100.00;96442.56;5087800;28;20028;-66
2023/03/13 20:38:31;;;;;;;0.40;0.40;;;;;;;5.68;100.00;96452.19;5087675;28;20024;-67
2023/03/13 20:40:57;;;;;;;0.40;0.40;;;;;;;5.69;100.00;96451.25;5087552;28;20063;-68
2023/03/13 20:43:23;;;;;;;0.40;0.40;;;;;;;5.67;100.00;96459.06;5087550;28;20040;-67
2023/03/13 20:45:49;;;;;;;0.40;0.40;;;;;;;5.66;100.00;96456.56;5086414;28;20048;-67
2023/03/13 20:48:15;;;;;;;0.40;0.40;;;;;;;5.65;100.00;96442.88;5087364;28;20088;-67
2023/03/13 20:50:40;;;;;;;0.40;0.40;;;;;;;5.64;100.00;96451.50;5087180;28;20083;-67
2023/03/13 20:53:06;;;;;;;0.40;0.40;;;;;;;5.62;100.00;96457.66;5087593;28;20059;-66
2023/03/13 20:55:32;;;;;;;0.40;0.40;;;;;;;5.57;100.00;96457.88;5087505;28;20029;-67
2023/03/13 20:57:58;;;;;;;0.40;0.40;;;;;;;5.61;100.00;96466.28;5087208;28;20092;-67
2023/03/13 21:00:25;;;;;;;0.40;0.40;;;;;;;5.57;100.00;96458.69;5087546;28;20114;-67
2023/03/13 21:02:52;;;;;;;0.40;0.40;;;;;;;5.63;100.00;96474.75;5087279;28;20039;-68
2023/03/13 21:05:18;;;;;;;0.40;0.40;;;;;;;5.63;100.00;96465.28;5087512;28;20169;-68
2023/03/13 21:07:43;;;;;;;0.40;0.40;;;;;;;5.67;100.00;96461.63;5087178;28;20376;-68
2023/03/13 21:10:10;;;;;;;0.40;0.40;;;;;;;5.71;100.00;96477.75;5087211;28;20065;-67
2023/03/13 21:12:35;;;;;;;0.40;0.40;;;;;;;5.75;100.00;96473.28;5087142;28;20024;-69
2023/03/13 21:15:05;;;;;;;0.40;0.40;;;;;;;5.77;100.00;96476.59;5087260;28;20036;-69
2023/03/13 21:17:31;;;;;;;0.40;0.40;;;;;;;5.77;100.00;96484.31;5086901;28;20532;-68
2023/03/13 21:19:56;;;;;;;0.40;0.40;;;;;;;5.77;100.00;96486.88;5087246;28;20067;-69
2023/03/13 21:22:22;;;;;;;0.40;0.40;;;;;;;5.74;100.00;96477.59;5087028;28;20032;-68
2023/03/13 21:24:49;;;;;;;0.40;0.40;;;;;;;5.77;100.00;96492.03;5087066;28;20033;-68
2023/03/13 21:27:15;;;;;;;0.40;0.40;;;;;;;5.75;100.00;96484.38;5086569;28;20028;-68
2023/03/13 21:29:42;;;;;;;0.40;0.40;;;;;;;5.76;100.00;96490.38;5086983;28;20032;-68
2023/03/13 21:32:10;;;;;;;0.40;0.40;;;;;;;5.76;100.00;96491.22;5068823;28;20033;-67
2023/03/13 21:34:35;;;;;;;0.40;0.40;;;;;;;5.77;100.00;96507.47;5086804;28;20029;-68
2023/03/13 21:37:01;;;;;;;0.40;0.40;;;;;;;5.76;100.00;96498.09;5068473;28;20185;-69
2023/03/13 21:39:26;;;;;;;0.40;0.40;;;;;;;5.75;100.00;96504.97;5086716;28;20147;-68
2023/03/13 21:41:52;;;;;;;0.40;0.40;;;;;;;5.74;100.00;96512.78;5086421;28;20040;-69
2023/03/13 21:44:18;;;;;;;0.50;0.50;;;;;;;5.72;100.00;96520.59;5086647;28;20029;-70
2023/03/13 21:46:44;;;;;;;0.60;0.60;;;;;;;5.69;100.00;96521.59;5086490;28;20060;-67
2023/03/13 21:49:11;;;;;;;0.50;0.50;;;;;;;5.68;100.00;96513.94;5086497;28;20051;-68
2023/03/13 21:51:37;;;;;;;0.35;0.35;;;;;;;5.67;100.00;96523.41;5086338;28;20044;-68
2023/03/13 21:54:02;;;;;;;11.02;3.90;;;;;;;5.60;100.00;96511.75;5086381;28;20036;-69
2023/03/13 21:56:28;;;;;;;0.40;0.40;;;;;;;5.67;100.00;96525.16;5085695;28;20059;-69
2023/03/13 21:58:53;;;;;;;0.68;0.55;;;;;;;5.62;100.00;96527.13;5086664;28;20163;-67
2023/03/13 22:01:19;;;;;;;0.40;0.40;;;;;;;5.63;100.00;96527.03;5087701;28;20090;-67
2023/03/13 22:03:44;;;;;;;0.40;0.40;;;;;;;5.61;100.00;96525.47;5086204;28;20037;-68
2023/03/13 22:06:15;;;;;;;0.90;0.90;;;;;;;5.67;100.00;96523.41;5086201;28;20088;-69
2023/03/13 22:08:41;;;;;;;3.03;2.55;;;;;;;5.61;100.00;96522.91;5086317;28;20069;-68
2023/03/13 22:11:07;;;;;;;0.45;0.45;;;;;;;5.68;100.00;96535.38;5085839;28;20031;-68
2023/03/13 22:13:33;;;;;;;0.50;0.50;;;;;;;5.65;100.00;96525.22;5086098;28;20056;-69
2023/03/13 22:15:58;;;;;;;0.40;0.40;;;;;;;5.70;100.00;96536.09;5086031;28;20043;-68
2023/03/13 22:18:24;;;;;;;0.40;0.40;;;;;;;5.73;100.00;96526.56;5085813;28;20043;-68
2023/03/13 22:20:49;;;;;;;0.52;0.52;;;;;;;5.70;100.00;96536.09;5085931;28;20037;-69
2023/03/13 22:23:15;;;;;;;0.60;0.60;;;;;;;5.70;100.00;96535.28;5085989;28;20035;-69
2023/03/13 22:25:41;;;;;;;2.83;1.85;;;;;;;5.64;100.00;96526.13;5085893;28;20036;-70
2023/03/13 22:28:08;;;;;;;0.80;0.80;;;;;;;5.69;100.00;96547.31;5085661;28;20028;-68
2023/03/13 22:30:34;;;;;;;0.60;0.60;;;;;;;5.69;100.00;96542.16;5086066;28;20032;-69
2023/03/13 22:32:59;;;;;;;0.40;0.40;;;;;;;5.69;100.00;96537.03;5086244;28;20469;-69
2023/03/13 22:35:25;;;;;;;0.77;0.77;;;;;;;5.67;100.00;96549.13;5085812;28;20042;-69
2023/03/13 22:37:50;;;;;;;0.40;0.40;;;;;;;5.67;100.00;96556.84;5085457;28;20509;-68
2023/03/13 22:40:16;;;;;;;0.40;0.40;;;;;;;5.64;100.00;96558.75;5085635;28;20044;-69
2023/03/13 22:42:41;;;;;;;0.40;0.40;;;;;;;5.62;100.00;96561.41;5085302;28;20025;-68
2023/03/13 22:45:07;;;;;;;0.40;0.40;;;;;;;5.62;100.00;96558.00;5085569;28;20491;-68
2023/03/13 22:47:33;;;;;;;0.40;0.40;;;;;;;5.61;100.00;96577.75;5085363;28;20036;-69
2023/03/13 22:49:58;;;;;;;0.50;0.50;;;;;;;5.64;100.00;96569.88;5085237;28;20106;-65
2023/03/13 22:52:29;;;;;;;0.50;0.50;;;;;;;5.64;100.00;96585.31;5085418;28;20043;-64
2023/03/13 22:54:58;;;;;;;0.50;0.50;;;;;;;5.61;100.00;96577.75;5085325;28;20039;-65
2023/03/13 22:57:23;;;;;;;0.50;0.50;;;;;;;5.60;100.00;96582.97;5084986;28;20033;-65
2023/03/13 22:59:49;;;;;;;0.40;0.40;;;;;;;5.54;100.00;96571.25;5085139;28;20397;-65
2023/03/13 23:02:14;;;;;;;0.88;0.88;;;;;;;5.58;100.00;96589.03;5085182;28;20024;-65
2023/03/13 23:04:40;;;;;;;0.40;0.40;;;;;;;5.55;100.00;96581.47;5085212;28;20037;-65
2023/03/13 23:07:05;;;;;;;0.40;0.40;;;;;;;5.54;100.00;96581.53;5084878;28;20037;-66
2023/03/13 23:09:30;;;;;;;0.50;0.50;;;;;;;5.53;100.00;96582.44;5084686;28;20055;-65
2023/03/13 23:11:56;;;;;;;0.40;0.40;;;;;;;5.57;100.00;96581.41;5085053;28;20036;-64
2023/03/13 23:14:21;;;;;;;1.48;1.48;;;;;;;5.55;100.00;96584.03;5085170;28;20032;-65
2023/03/13 23:16:47;;;;;;;0.60;0.60;;;;;;;5.57;100.00;96595.06;5067212;28;20032;-65
2023/03/13 23:19:13;;;;;;;0.50;0.50;;;;;;;5.52;100.00;96591.91;5085089;28;20032;-65
2023/03/13 23:21:38;;;;;;;1.10;1.10;;;;;;;5.53;100.00;96590.16;5085000;28;20036;-66
2023/03/13 23:24:05;;;;;;;0.40;0.40;;;;;;;5.54;100.00;96591.84;5085215;28;20104;-65
2023/03/13 23:26:36;;;;;;;0.40;0.40;;;;;;;5.53;100.00;96587.56;5085131;28;20040;-66
2023/03/13 23:29:12;;;;;;;1.05;1.05;;;;;;;5.50;100.00;96585.16;5085058;28;20091;-66
2023/03/13 23:31:41;;;;;;;0.50;0.50;;;;;;;5.48;100.00;96594.72;5085341;28;20055;-66
2023/03/13 23:34:06;;;;;;;0.40;0.40;;;;;;;5.46;100.00;96587.88;5085000;28;20024;-66
2023/03/13 23:36:35;;;;;;;0.40;0.40;;;;;;;5.43;100.00;96598.31;5085129;28;20044;-67